createdAt,value
2023-02-17T00:03:37.578Z,1033.6
2023-02-17T00:08:52.980Z,1033.6
2023-02-17T00:14:30.014Z,1033.6
2023-02-17T00:19:59.337Z,1033.6
2023-02-17T00:25:33.696Z,1033.4
2023-02-17T00:31:19.752Z,1033.3
2023-02-17T00:36:47.807Z,1033.3
2023-02-17T00:42:28.208Z,1033.4
2023-02-17T00:47:57.231Z,1033.6
2023-02-17T00:53:32.052Z,1033.7
2023-02-17T00:59:02.382Z,1033.6
2023-02-17T01:04:32.363Z,1033.7
2023-02-17T01:10:08.420Z,1033.7
2023-02-17T01:15:43.562Z,1033.7
2023-02-17T01:21:25.278Z,1033.6
2023-02-17T01:27:04.515Z,1033.6
2023-02-17T01:32:11.390Z,1033.7
2023-02-17T01:37:57.936Z,1033.7
2023-02-17T01:43:35.294Z,1033.6
2023-02-17T01:48:57.395Z,1033.3
2023-02-17T01:54:33.399Z,1033.2
2023-02-17T02:00:12.953Z,1033.1
2023-02-17T02:05:48.000Z,1032.9
2023-02-17T02:11:10.012Z,1032.9
2023-02-17T02:17:04.642Z,1032.9
2023-02-17T02:22:27.602Z,1033.1
2023-02-17T02:27:54.466Z,1033
2023-02-17T02:33:17.765Z,1033.1
2023-02-17T02:38:52.318Z,1033
2023-02-17T02:44:28.204Z,1033
2023-02-17T02:50:04.211Z,1033
2023-02-17T02:55:33.960Z,1032.9
2023-02-17T03:01:11.989Z,1032.9
2023-02-17T03:07:04.174Z,1032.9
2023-02-17T03:12:12.160Z,1033
2023-02-17T03:17:57.939Z,1033.1
2023-02-17T03:23:17.973Z,1033.1
2023-02-17T03:29:16.774Z,1033
2023-02-17T03:34:50.078Z,1032.8
2023-02-17T03:39:58.811Z,1032.9
2023-02-17T03:45:33.132Z,1032.9
2023-02-17T03:51:08.489Z,1032.8
2023-02-17T03:57:00.143Z,1032.7
2023-02-17T04:02:15.570Z,1032.8
2023-02-17T04:07:43.298Z,1032.9
2023-02-17T04:13:34.439Z,1033
2023-02-17T04:19:01.798Z,1033.2
2023-02-17T04:24:38.188Z,1033.2
2023-02-17T04:30:16.809Z,1033.3
2023-02-17T04:35:37.680Z,1033.2
2023-02-17T04:41:20.922Z,1032.8
2023-02-17T04:46:50.933Z,1032.8
2023-02-17T04:52:09.076Z,1032.7
2023-02-17T04:57:43.315Z,1032.6
2023-02-17T05:03:13.239Z,1032.6
2023-02-17T05:08:46.903Z,1032.5
2023-02-17T05:14:34.020Z,1032.6
2023-02-17T05:20:00.880Z,1032.7
2023-02-17T05:25:39.247Z,1032.7
2023-02-17T05:31:03.805Z,1032.9
2023-02-17T05:36:58.185Z,1033
2023-02-17T05:42:09.574Z,1033
2023-02-17T05:47:50.120Z,1033
2023-02-17T05:53:35.519Z,1032.9
2023-02-17T05:58:54.762Z,1032.9
2023-02-17T06:04:47.519Z,1032.8
2023-02-17T06:10:05.942Z,1032.8
2023-02-17T06:15:34.812Z,1032.6
2023-02-17T06:21:08.588Z,1032.6
2023-02-17T06:26:37.957Z,1032.7
2023-02-17T06:32:31.679Z,1032.7
2023-02-17T06:38:05.705Z,1032.8
2023-02-17T06:43:38.830Z,1032.8
2023-02-17T06:49:02.716Z,1032.8
2023-02-17T06:54:44.969Z,1032.8
2023-02-17T07:00:13.196Z,1032.9
2023-02-17T07:05:47.547Z,1032.6
2023-02-17T07:11:17.614Z,1032.6
2023-02-17T07:16:43.146Z,1032.6
2023-02-17T07:22:19.843Z,1032.5
2023-02-17T07:27:52.658Z,1032.6
2023-02-17T07:33:37.861Z,1032.8
2023-02-17T07:39:09.347Z,1032.7
2023-02-17T07:44:49.488Z,1032.7
2023-02-17T07:50:15.069Z,1032.6
2023-02-17T07:55:43.138Z,1032.5
2023-02-17T08:01:29.008Z,1032.7
2023-02-17T08:06:48.896Z,1032.7
2023-02-17T08:12:36.178Z,1032.7
2023-02-17T08:18:00.915Z,1032.6
2023-02-17T08:23:25.223Z,1032.6
2023-02-17T08:29:05.823Z,1032.7
2023-02-17T08:34:48.884Z,1032.9
2023-02-17T08:40:18.343Z,1032.8
2023-02-17T08:45:52.349Z,1032.8
2023-02-17T08:51:15.041Z,1032.9
2023-02-17T08:57:12.621Z,1032.9
2023-02-17T09:02:36.110Z,1032.9
2023-02-17T09:08:09.283Z,1033
2023-02-17T09:13:42.491Z,1033
2023-02-17T09:19:27.539Z,1033
2023-02-17T09:24:41.084Z,1032.9
2023-02-17T09:30:24.867Z,1032.9
2023-02-17T09:35:53.880Z,1032.9
2023-02-17T09:41:37.275Z,1032.7
2023-02-17T09:47:18.061Z,1032.9
2023-02-17T09:52:40.824Z,1033
2023-02-17T09:58:14.534Z,1033
2023-02-17T10:04:04.585Z,1033
2023-02-17T10:09:18.580Z,1033.1
2023-02-17T10:15:00.926Z,1033.2
2023-02-17T10:20:35.957Z,1033.1
2023-02-17T10:26:26.880Z,1033
2023-02-17T10:31:55.351Z,1033.1
2023-02-17T10:37:12.336Z,1032.9
2023-02-17T10:42:57.491Z,1033
2023-02-17T10:48:48.755Z,1032.9
2023-02-17T10:54:04.705Z,1032.8
2023-02-17T10:59:49.643Z,1032.7
2023-02-17T11:05:09.470Z,1032.6
2023-02-17T11:10:39.954Z,1032.5
2023-02-17T11:16:38.073Z,1032.2
2023-02-17T11:22:13.717Z,1031.8
2023-02-17T11:27:31.192Z,1031.7
2023-02-17T11:33:05.845Z,1031.6
2023-02-17T11:38:50.595Z,1031.5
2023-02-17T11:44:16.842Z,1031.5
2023-02-17T11:49:53.400Z,1031.4
2023-02-17T11:55:49.035Z,1031.4
2023-02-17T12:01:11.682Z,1031.4
2023-02-17T12:06:39.957Z,1031.5
2023-02-17T12:12:09.972Z,1031.5
2023-02-17T12:17:48.439Z,1031.3
2023-02-17T12:23:39.514Z,1031.1
2023-02-17T12:29:01.747Z,1031
2023-02-17T12:34:47.804Z,1031
2023-02-17T12:40:22.270Z,1031
2023-02-17T12:45:58.913Z,1030.9
2023-02-17T12:51:38.962Z,1030.8
2023-02-17T12:57:10.479Z,1030.8
2023-02-17T13:02:29.782Z,1030.9
2023-02-17T13:08:22.602Z,1030.9
2023-02-17T13:19:17.473Z,1030.9
2023-02-17T13:24:50.436Z,1030.9
2023-02-17T13:30:34.357Z,1031
2023-02-17T13:36:07.125Z,1030.9
2023-02-17T13:41:57.911Z,1030.9
2023-02-17T13:47:29.667Z,1030.8
2023-02-17T13:52:46.285Z,1030.9
2023-02-17T13:58:39.130Z,1030.8
2023-02-17T14:03:57.458Z,1030.8
2023-02-17T14:09:40.287Z,1030.8
2023-02-17T14:15:07.722Z,1030.7
2023-02-17T14:20:40.201Z,1030.7
2023-02-17T14:26:26.078Z,1030.6
2023-02-17T14:32:02.713Z,1030.5
2023-02-17T14:37:28.439Z,1030.6
2023-02-17T14:43:12.387Z,1030.7
2023-02-17T14:48:42.435Z,1030.6
2023-02-17T14:54:17.646Z,1030.6
2023-02-17T15:00:06.100Z,1030.6
2023-02-17T15:05:21.886Z,1030.7
2023-02-17T15:11:15.717Z,1030.7
2023-02-17T15:16:33.095Z,1030.7
2023-02-17T15:22:28.095Z,1030.7
2023-02-17T15:27:38.410Z,1030.8
2023-02-17T15:33:12.657Z,1030.7
2023-02-17T15:39:00.442Z,1030.8
2023-02-17T15:44:39.972Z,1031
2023-02-17T15:50:09.821Z,1031.2
2023-02-17T15:55:57.671Z,1031.1
2023-02-17T16:01:10.307Z,1031
2023-02-17T16:06:57.669Z,1030.9
2023-02-17T16:12:35.093Z,1031.1
2023-02-17T16:18:13.162Z,1031.1
2023-02-17T16:23:43.414Z,1031.1
2023-02-17T16:29:17.163Z,1031
2023-02-17T16:34:57.814Z,1031.1
2023-02-17T16:40:13.844Z,1031.1
2023-02-17T16:46:03.740Z,1031.2
2023-02-17T16:51:16.384Z,1031.4
2023-02-17T16:57:11.270Z,1031.7
2023-02-17T17:02:45.677Z,1031.9
2023-02-17T17:07:55.399Z,1032.1
2023-02-17T17:13:41.468Z,1032.5
2023-02-17T17:19:01.091Z,1032.2
2023-02-17T17:24:36.538Z,1032.4
2023-02-17T17:30:26.585Z,1032.6
2023-02-17T17:36:02.284Z,1032.9
2023-02-17T17:41:39.897Z,1033.2
2023-02-17T17:46:54.032Z,1033.4
2023-02-17T17:52:48.751Z,1033.5
2023-02-17T17:58:19.875Z,1033.4
2023-02-17T18:03:37.750Z,1033.4
2023-02-17T18:09:30.524Z,1033.3
2023-02-17T18:14:46.407Z,1033.3
2023-02-17T18:20:12.043Z,1033.2
2023-02-17T18:25:52.457Z,1033.1
2023-02-17T18:31:34.238Z,1033.4
2023-02-17T18:36:54.044Z,1033.5
2023-02-17T18:42:48.752Z,1033.4
2023-02-17T18:48:22.755Z,1033.2
2023-02-17T18:53:56.772Z,1033.3
2023-02-17T18:59:09.196Z,1033.4
2023-02-17T19:04:40.255Z,1033.3
2023-02-17T19:10:15.356Z,1033.4
2023-02-17T19:16:01.031Z,1033.7
2023-02-17T19:21:31.643Z,1033.9
2023-02-17T19:27:19.585Z,1033.9
2023-02-17T19:32:37.619Z,1034
2023-02-17T19:38:06.872Z,1033.8
2023-02-17T19:43:55.494Z,1034
2023-02-17T19:49:25.525Z,1033.9
2023-02-17T19:54:57.012Z,1034
2023-02-17T20:00:40.499Z,1034.1
2023-02-17T20:06:09.230Z,1034.2
2023-02-17T20:11:24.524Z,1034.2
2023-02-17T20:16:54.634Z,1034.1
2023-02-17T20:22:49.961Z,1034.1
2023-02-17T20:28:21.410Z,1034.2
2023-02-17T20:34:00.626Z,1034.1
2023-02-17T20:39:14.826Z,1034.1
2023-02-17T20:44:49.480Z,1034.2
2023-02-17T20:50:29.632Z,1034.4
2023-02-17T20:55:51.087Z,1034.3
2023-02-17T21:01:21.578Z,1034.3
2023-02-17T21:07:11.502Z,1034.4
2023-02-17T21:12:53.083Z,1034.4
2023-02-17T21:18:21.834Z,1034.5
2023-02-17T21:23:33.368Z,1034.4
2023-02-17T21:29:19.679Z,1034.4
2023-02-17T21:34:42.052Z,1034.4
2023-02-17T21:40:13.814Z,1034.4
2023-02-17T21:45:56.449Z,1034.4
2023-02-17T21:51:27.229Z,1034.4
2023-02-17T21:57:04.508Z,1034.6
2023-02-17T22:02:50.741Z,1034.5
2023-02-17T22:08:05.648Z,1034.5
2023-02-17T22:13:47.709Z,1034.5
2023-02-17T22:19:14.320Z,1034.5
2023-02-17T22:24:41.095Z,1034.5
2023-02-17T22:30:26.487Z,1034.6
2023-02-17T22:35:52.327Z,1034.7
2023-02-17T22:41:18.253Z,1034.8
2023-02-17T22:47:11.848Z,1034.8
2023-02-17T22:52:28.747Z,1034.6
2023-02-17T22:58:15.353Z,1034.7
2023-02-17T23:03:37.068Z,1034.9
2023-02-17T23:09:20.560Z,1034.8
2023-02-17T23:14:44.496Z,1034.8
2023-02-17T23:20:35.772Z,1034.8
2023-02-17T23:25:50.978Z,1034.7
2023-02-17T23:31:32.977Z,1034.7
2023-02-17T23:37:05.162Z,1034.7
2023-02-17T23:42:49.586Z,1034.7
2023-02-17T23:48:02.186Z,1034.7
2023-02-17T23:53:47.643Z,1034.4
2023-02-17T23:59:14.819Z,1034.4
